createdAt,value
2023-01-17T00:00:32.732Z,98528.38
2023-01-17T00:02:59.385Z,98519.66
2023-01-17T00:05:44.479Z,98529.28
2023-01-17T00:08:31.147Z,98536.78
2023-01-17T00:10:58.284Z,98540.94
2023-01-17T00:13:24.716Z,98542.81
2023-01-17T00:15:51.181Z,98549.66
2023-01-17T00:18:17.668Z,98546.03
2023-01-17T00:21:02.765Z,98544.34
2023-01-17T00:24:00.843Z,98555.38
2023-01-17T00:26:27.600Z,98559.00
2023-01-17T00:28:53.915Z,98558.25
2023-01-17T00:31:20.364Z,98565.88
2023-01-17T00:33:46.721Z,98571.25
2023-01-17T00:36:13.722Z,98579.25
2023-01-17T00:38:40.442Z,98581.50
2023-01-17T00:41:09.395Z,98586.38
2023-01-17T00:43:54.902Z,98590.66
2023-01-17T00:46:40.812Z,98600.69
2023-01-17T00:49:26.615Z,98608.97
2023-01-17T00:52:11.900Z,98624.94
2023-01-17T00:54:57.205Z,98627.44
2023-01-17T00:57:42.518Z,98625.25
2023-01-17T01:00:27.962Z,98632.97
2023-01-17T01:03:12.645Z,98635.94
2023-01-17T01:05:57.506Z,98629.84
2023-01-17T01:08:45.157Z,98620.28
2023-01-17T01:11:35.968Z,98625.72
2023-01-17T01:14:21.254Z,98625.25
2023-01-17T01:17:06.672Z,98631.25
2023-01-17T01:19:51.915Z,98640.97
2023-01-17T01:22:36.704Z,98646.28
2023-01-17T01:25:22.069Z,98652.09
2023-01-17T01:28:06.912Z,98652.31
2023-01-17T01:30:51.827Z,98653.78
2023-01-17T01:33:21.011Z,98660.63
2023-01-17T01:35:48.595Z,98668.41
2023-01-17T01:38:16.004Z,98659.31
2023-01-17T01:40:44.164Z,98665.94
2023-01-17T01:43:13.219Z,98675.06
2023-01-17T01:45:40.492Z,98672.66
2023-01-17T01:48:22.634Z,98675.66
2023-01-17T01:50:50.743Z,98675.94
2023-01-17T01:53:20.304Z,98677.19
2023-01-17T01:55:50.928Z,98669.47
2023-01-17T01:58:25.565Z,98675.88
2023-01-17T02:00:52.054Z,98688.03
2023-01-17T02:03:26.478Z,98692.19
2023-01-17T02:05:53.085Z,98693.28
2023-01-17T02:08:22.766Z,98709.59
2023-01-17T02:10:50.774Z,98717.75
2023-01-17T02:13:20.655Z,98724.41
2023-01-17T02:16:05.864Z,98729.22
2023-01-17T02:18:48.992Z,98746.66
2023-01-17T02:21:22.490Z,98753.31
2023-01-17T02:23:51.626Z,98753.22
2023-01-17T02:26:38.334Z,98745.53
2023-01-17T02:29:23.492Z,98769.97
2023-01-17T02:31:53.769Z,98761.09
2023-01-17T02:34:44.473Z,98760.72
2023-01-17T02:37:18.457Z,98752.78
2023-01-17T02:40:11.473Z,98758.78
2023-01-17T02:42:44.145Z,98747.47
2023-01-17T02:45:15.489Z,98754.72
2023-01-17T02:47:41.834Z,98756.56
2023-01-17T02:50:12.380Z,98758.78
2023-01-17T02:53:03.294Z,98764.44
2023-01-17T02:56:00.204Z,98766.28
2023-01-17T02:58:32.615Z,98770.91
2023-01-17T03:01:22.920Z,98762.19
2023-01-17T03:04:24.115Z,98773.13
2023-01-17T03:06:58.970Z,98760.81
2023-01-17T03:09:26.735Z,98765.75
2023-01-17T03:11:53.746Z,98771.75
2023-01-17T03:14:20.359Z,98774.59
2023-01-17T03:16:47.406Z,98772.97
2023-01-17T03:19:14.724Z,98777.94
2023-01-17T03:21:41.113Z,98780.91
2023-01-17T03:24:07.618Z,98775.63
2023-01-17T03:26:34.027Z,98785.06
2023-01-17T03:29:00.499Z,98787.56
2023-01-17T03:31:26.955Z,98798.81
2023-01-17T03:33:53.342Z,98795.56
2023-01-17T03:36:20.276Z,98800.53
2023-01-17T03:38:46.670Z,98804.53
2023-01-17T03:41:13.019Z,98808.72
2023-01-17T03:43:39.400Z,98809.53
2023-01-17T03:46:17.350Z,98804.19
2023-01-17T03:48:43.790Z,98813.69
2023-01-17T03:51:10.158Z,98811.50
2023-01-17T03:53:36.603Z,98808.72
2023-01-17T03:56:03.061Z,98819.09
2023-01-17T03:58:29.430Z,98814.91
2023-01-17T04:00:55.940Z,98809.63
2023-01-17T04:03:22.569Z,98818.63
2023-01-17T04:05:48.962Z,98818.06
2023-01-17T04:08:15.447Z,98820.66
2023-01-17T04:10:41.771Z,98821.69
2023-01-17T04:13:08.203Z,98828.72
2023-01-17T04:15:34.870Z,98832.97
2023-01-17T04:18:01.575Z,98830.75
2023-01-17T04:20:34.561Z,98841.56
2023-01-17T04:23:01.042Z,98846.63
2023-01-17T04:25:29.783Z,98841.78
2023-01-17T04:27:57.370Z,98838.28
2023-01-17T04:30:24.229Z,98846.88
2023-01-17T04:32:50.841Z,98840.53
2023-01-17T04:35:17.320Z,98841.34
2023-01-17T04:37:43.742Z,98830.06
2023-01-17T04:40:11.793Z,98823.78
2023-01-17T04:42:38.173Z,98827.84
2023-01-17T04:45:05.164Z,98822.41
2023-01-17T04:47:33.046Z,98824.06
2023-01-17T04:49:59.442Z,98823.06
2023-01-17T04:52:25.948Z,98821.28
2023-01-17T04:54:52.907Z,98823.88
2023-01-17T04:57:20.087Z,98824.06
2023-01-17T04:59:47.001Z,98820.72
2023-01-17T05:02:14.463Z,98819.63
2023-01-17T05:04:40.882Z,98828.34
2023-01-17T05:07:07.645Z,98826.94
2023-01-17T05:09:34.029Z,98829.63
2023-01-17T05:12:00.443Z,98838.31
2023-01-17T05:14:27.125Z,98838.22
2023-01-17T05:16:54.950Z,98837.59
2023-01-17T05:19:22.037Z,98841.81
2023-01-17T05:21:48.489Z,98848.88
2023-01-17T05:24:14.954Z,98842.19
2023-01-17T05:26:42.993Z,98850.22
2023-01-17T05:29:10.152Z,98858.94
2023-01-17T05:31:36.951Z,98851.34
2023-01-17T05:34:04.045Z,98854.00
2023-01-17T05:36:30.698Z,98843.72
2023-01-17T05:38:57.407Z,98849.41
2023-01-17T05:41:24.067Z,98849.41
2023-01-17T05:43:50.432Z,98856.25
2023-01-17T05:46:18.040Z,98855.75
2023-01-17T05:48:44.629Z,98861.03
2023-01-17T05:51:11.040Z,98861.03
2023-01-17T05:53:37.529Z,98866.38
2023-01-17T05:56:04.008Z,98871.66
2023-01-17T05:58:30.391Z,98880.34
2023-01-17T06:00:56.821Z,98880.72
2023-01-17T06:03:23.531Z,98881.56
2023-01-17T06:05:50.097Z,98878.72
2023-01-17T06:08:16.700Z,98884.72
2023-01-17T06:10:43.046Z,98886.63
2023-01-17T06:13:15.314Z,98894.69
2023-01-17T06:15:42.167Z,98892.25
2023-01-17T06:18:14.087Z,98887.50
2023-01-17T06:20:40.732Z,98904.31
2023-01-17T06:23:10.624Z,98905.56
2023-01-17T06:25:46.863Z,98917.53
2023-01-17T06:28:15.577Z,98896.63
2023-01-17T06:30:43.867Z,98902.13
2023-01-17T06:33:11.297Z,98892.59
2023-01-17T06:35:38.271Z,98895.03
2023-01-17T06:38:04.761Z,98885.97
2023-01-17T06:40:31.192Z,98895.25
2023-01-17T06:43:04.902Z,98888.56
2023-01-17T06:45:33.716Z,98891.91
2023-01-17T06:48:01.059Z,98892.56
2023-01-17T06:50:27.701Z,98896.91
2023-01-17T06:53:02.929Z,98899.59
2023-01-17T06:55:30.916Z,98903.09
2023-01-17T06:57:59.466Z,98903.78
2023-01-17T07:00:30.646Z,98905.44
2023-01-17T07:02:57.423Z,98907.13
2023-01-17T07:05:28.329Z,98904.44
2023-01-17T07:07:55.040Z,98900.94
2023-01-17T07:10:22.012Z,98908.63
2023-01-17T07:12:48.343Z,98913.59
2023-01-17T07:15:14.834Z,98910.09
2023-01-17T07:17:41.308Z,98911.78
2023-01-17T07:20:08.532Z,98911.78
2023-01-17T07:22:36.916Z,98912.69
2023-01-17T07:25:03.651Z,98909.38
2023-01-17T07:27:30.637Z,98915.47
2023-01-17T07:29:57.952Z,98918.06
2023-01-17T07:32:26.492Z,98916.13
2023-01-17T07:34:53.273Z,98923.06
2023-01-17T07:37:20.031Z,98920.91
2023-01-17T07:39:46.820Z,98916.00
2023-01-17T07:42:13.225Z,98919.31
2023-01-17T07:44:41.387Z,98918.50
2023-01-17T07:47:07.920Z,98915.81
2023-01-17T07:49:34.339Z,98921.00
2023-01-17T07:52:00.850Z,98921.00
2023-01-17T07:54:27.203Z,98930.44
2023-01-17T07:56:53.543Z,98920.06
2023-01-17T07:59:19.935Z,98927.94
2023-01-17T08:01:46.565Z,98933.94
2023-01-17T08:04:14.164Z,98927.28
2023-01-17T08:06:47.129Z,98929.88
2023-01-17T08:09:13.835Z,98928.84
2023-01-17T08:11:40.184Z,98926.19
2023-01-17T08:14:06.556Z,98932.28
2023-01-17T08:16:33.001Z,98934.19
2023-01-17T08:18:59.412Z,98930.03
2023-01-17T08:21:25.794Z,98939.47
2023-01-17T08:23:52.537Z,98936.31
2023-01-17T08:26:23.875Z,98942.25
2023-01-17T08:29:00.614Z,98944.94
2023-01-17T08:31:28.713Z,98946.41
2023-01-17T08:33:56.663Z,98949.16
2023-01-17T08:36:25.581Z,98957.78
2023-01-17T08:38:52.832Z,98949.25
2023-01-17T08:41:20.830Z,98951.13
2023-01-17T08:43:48.629Z,98948.44
2023-01-17T08:46:15.265Z,98958.88
2023-01-17T08:48:41.674Z,98956.28
2023-01-17T08:51:08.228Z,98959.47
2023-01-17T08:53:34.786Z,98959.63
2023-01-17T08:56:03.498Z,98961.63
2023-01-17T08:58:31.353Z,98968.31
2023-01-17T09:01:06.453Z,98970.31
2023-01-17T09:03:34.586Z,98965.47
2023-01-17T09:06:08.560Z,98975.84
2023-01-17T09:08:35.886Z,98975.75
2023-01-17T09:11:11.338Z,98974.16
2023-01-17T09:13:38.330Z,98981.25
2023-01-17T09:16:06.124Z,98985.50
2023-01-17T09:18:34.376Z,98989.88
2023-01-17T09:21:09.902Z,98994.38
2023-01-17T09:23:36.280Z,98984.78
2023-01-17T09:26:02.667Z,98994.28
2023-01-17T09:28:29.085Z,98989.09
2023-01-17T09:30:55.602Z,98990.00
2023-01-17T09:33:24.308Z,98995.19
2023-01-17T09:35:51.047Z,98995.28
2023-01-17T09:38:17.441Z,98996.72
2023-01-17T09:40:47.352Z,99002.72
2023-01-17T09:43:32.040Z,99000.81
2023-01-17T09:45:58.559Z,99007.59
2023-01-17T09:48:37.901Z,99006.50
2023-01-17T09:51:12.344Z,99009.78
2023-01-17T09:53:41.493Z,99013.84
2023-01-17T09:56:15.068Z,99017.31
2023-01-17T09:59:00.663Z,99019.13
2023-01-17T10:01:59.517Z,99020.53
2023-01-17T10:04:43.185Z,99024.13
2023-01-17T10:07:38.496Z,99026.56
2023-01-17T10:10:16.849Z,99028.50
2023-01-17T10:13:23.907Z,99027.59
2023-01-17T10:16:09.065Z,99022.63
2023-01-17T10:19:16.098Z,99030.16
2023-01-17T10:22:07.439Z,99020.47
2023-01-17T10:25:15.910Z,99030.00
2023-01-17T10:27:58.919Z,99027.41
2023-01-17T10:30:45.974Z,99022.81
2023-01-17T10:33:17.956Z,99022.66
2023-01-17T10:35:53.780Z,99025.31
2023-01-17T10:38:30.934Z,99024.97
2023-01-17T10:41:05.961Z,99028.34
2023-01-17T10:43:49.941Z,99021.47
2023-01-17T10:46:21.828Z,99023.88
2023-01-17T10:48:52.367Z,99035.69
2023-01-17T10:51:33.641Z,99022.66
2023-01-17T10:54:23.935Z,99031.00
2023-01-17T10:56:50.393Z,99030.84
2023-01-17T10:59:26.089Z,99027.31
2023-01-17T11:01:52.625Z,99031.88
2023-01-17T11:04:30.829Z,99030.84
2023-01-17T11:07:18.193Z,99033.50
2023-01-17T11:09:50.349Z,99036.38
2023-01-17T11:12:26.995Z,99036.28
2023-01-17T11:15:06.143Z,99032.78
2023-01-17T11:17:33.977Z,99035.09
2023-01-17T11:20:08.848Z,99040.97
2023-01-17T11:22:35.409Z,99038.63
2023-01-17T11:25:02.538Z,99029.50
2023-01-17T11:27:34.967Z,99026.81
2023-01-17T11:30:17.034Z,99020.25
2023-01-17T11:33:00.534Z,99024.47
2023-01-17T11:35:35.381Z,99022.47
2023-01-17T11:38:19.226Z,99019.97
2023-01-17T11:40:48.530Z,99026.16
2023-01-17T11:43:26.690Z,99027.00
2023-01-17T11:46:03.432Z,99016.47
2023-01-17T11:48:35.964Z,99017.22
2023-01-17T11:51:03.513Z,99019.16
2023-01-17T11:53:38.253Z,99019.88
2023-01-17T11:56:07.917Z,99025.16
2023-01-17T11:58:37.312Z,99018.97
2023-01-17T12:01:28.492Z,99019.31
2023-01-17T12:04:10.963Z,99020.97
2023-01-17T12:06:58.321Z,99015.53
2023-01-17T12:09:52.493Z,99025.88
2023-01-17T12:13:31.426Z,99014.28
2023-01-17T12:16:38.172Z,99015.59
2023-01-17T12:19:22.945Z,99008.47
2023-01-17T12:22:02.443Z,99008.13
2023-01-17T12:24:45.253Z,99005.44
2023-01-17T12:27:30.464Z,98995.81
2023-01-17T12:30:26.582Z,98996.59
2023-01-17T12:33:15.848Z,98994.56
2023-01-17T12:36:17.375Z,98997.72
2023-01-17T12:38:46.558Z,98994.94
2023-01-17T12:41:23.542Z,98991.34
2023-01-17T12:43:56.373Z,98988.66
2023-01-17T12:46:43.166Z,98981.72
2023-01-17T12:49:34.559Z,98983.19
2023-01-17T12:52:38.560Z,98984.03
2023-01-17T12:55:16.103Z,98982.19
2023-01-17T12:57:47.752Z,98980.34
2023-01-17T13:00:22.827Z,98987.19
2023-01-17T13:02:59.293Z,98986.25
2023-01-17T13:05:45.951Z,98988.84
2023-01-17T13:08:19.810Z,98993.88
2023-01-17T13:10:57.988Z,98988.59
2023-01-17T13:13:29.684Z,98985.81
2023-01-17T13:16:02.319Z,98991.75
2023-01-17T13:18:29.929Z,98986.47
2023-01-17T13:21:14.538Z,98989.06
2023-01-17T13:23:59.332Z,98989.91
2023-01-17T13:26:47.527Z,98985.47
2023-01-17T13:29:31.421Z,98996.69
2023-01-17T13:32:28.289Z,98992.31
2023-01-17T13:35:28.519Z,98994.72
2023-01-17T13:38:30.237Z,98989.47
2023-01-17T13:41:03.733Z,98996.41
2023-01-17T13:43:39.349Z,98993.81
2023-01-17T13:46:06.684Z,98990.28
2023-01-17T13:48:38.394Z,98995.47
2023-01-17T13:51:06.971Z,98992.78
2023-01-17T13:53:36.943Z,98996.16
2023-01-17T13:56:18.609Z,98996.97
2023-01-17T13:58:47.082Z,99009.69
2023-01-17T14:01:13.561Z,99008.75
2023-01-17T14:03:46.169Z,99005.31
2023-01-17T14:06:33.805Z,99008.66
2023-01-17T14:09:01.634Z,99006.16
2023-01-17T14:11:28.048Z,99017.38
2023-01-17T14:13:54.516Z,99021.75
2023-01-17T14:16:21.053Z,99019.16
2023-01-17T14:18:48.391Z,99014.69
2023-01-17T14:21:27.077Z,99016.56
2023-01-17T14:23:59.538Z,99025.25
2023-01-17T14:26:33.293Z,99020.06
2023-01-17T14:29:38.091Z,99028.78
2023-01-17T14:32:08.884Z,99021.09
2023-01-17T14:34:36.682Z,99021.19
2023-01-17T14:37:05.372Z,99018.59
2023-01-17T14:39:31.832Z,99016.81
2023-01-17T14:41:58.431Z,99022.94
2023-01-17T14:44:24.945Z,99016.72
2023-01-17T14:46:51.444Z,99019.97
2023-01-17T14:49:24.170Z,99023.38
2023-01-17T14:52:04.540Z,99018.19
2023-01-17T14:54:30.888Z,99020.78
2023-01-17T14:57:34.747Z,99019.97
2023-01-17T15:00:11.349Z,99018.50
2023-01-17T15:02:43.757Z,99017.06
2023-01-17T15:05:14.062Z,99023.94
2023-01-17T15:07:42.016Z,99023.78
2023-01-17T15:10:21.414Z,99032.59
2023-01-17T15:12:48.108Z,99031.06
2023-01-17T15:15:44.609Z,99028.75
2023-01-17T15:18:14.056Z,99035.03
2023-01-17T15:20:49.899Z,99035.97
2023-01-17T15:23:20.167Z,99044.03
2023-01-17T15:25:48.488Z,99040.75
2023-01-17T15:28:15.656Z,99047.97
2023-01-17T15:31:09.124Z,99051.50
2023-01-17T15:33:40.874Z,99053.34
2023-01-17T15:36:09.540Z,99050.00
2023-01-17T15:38:39.509Z,99048.16
2023-01-17T15:41:13.563Z,99046.47
2023-01-17T15:43:41.606Z,99050.28
2023-01-17T15:46:21.109Z,99052.03
2023-01-17T15:48:47.687Z,99046.94
2023-01-17T15:51:14.269Z,99052.22
2023-01-17T15:53:42.869Z,99052.22
2023-01-17T15:56:24.333Z,99046.69
2023-01-17T15:58:50.794Z,99047.88
2023-01-17T16:01:24.914Z,99051.72
2023-01-17T16:03:55.035Z,99052.91
2023-01-17T16:06:45.560Z,99058.34
2023-01-17T16:09:22.860Z,99053.06
2023-01-17T16:11:49.269Z,99053.25
2023-01-17T16:14:15.671Z,99047.56
2023-01-17T16:16:50.685Z,99053.81
2023-01-17T16:19:17.064Z,99057.28
2023-01-17T16:21:45.126Z,99052.00
2023-01-17T16:24:11.791Z,99063.28
2023-01-17T16:26:38.112Z,99064.97
2023-01-17T16:29:04.517Z,99070.31
2023-01-17T16:31:31.015Z,99069.56
2023-01-17T16:33:57.487Z,99074.75
2023-01-17T16:36:23.861Z,99065.63
2023-01-17T16:38:51.472Z,99073.41
2023-01-17T16:41:18.709Z,99069.97
2023-01-17T16:43:45.094Z,99070.75
2023-01-17T16:46:12.054Z,99075.41
2023-01-17T16:48:38.420Z,99075.00
2023-01-17T16:51:06.480Z,99078.66
2023-01-17T16:53:32.952Z,99082.16
2023-01-17T16:56:07.575Z,99083.25
2023-01-17T16:58:33.976Z,99086.84
2023-01-17T17:01:00.475Z,99085.25
2023-01-17T17:03:26.975Z,99082.81
2023-01-17T17:05:58.261Z,99089.06
2023-01-17T17:08:24.885Z,99090.44
2023-01-17T17:10:51.665Z,99101.53
2023-01-17T17:13:18.079Z,99102.41
2023-01-17T17:15:44.781Z,99103.81
2023-01-17T17:18:16.097Z,99101.22
2023-01-17T17:20:43.348Z,99108.41
2023-01-17T17:23:10.228Z,99121.53
2023-01-17T17:25:37.850Z,99123.44
2023-01-17T17:28:05.613Z,99119.94
2023-01-17T17:30:32.033Z,99121.59
2023-01-17T17:32:58.384Z,99127.44
2023-01-17T17:35:24.817Z,99124.78
2023-01-17T17:37:51.526Z,99128.13
2023-01-17T17:40:18.052Z,99127.13
2023-01-17T17:42:44.356Z,99134.00
2023-01-17T17:45:11.017Z,99134.00
2023-01-17T17:47:37.508Z,99138.31
2023-01-17T17:50:04.417Z,99146.03
2023-01-17T17:52:32.341Z,99151.22
2023-01-17T17:54:58.777Z,99152.22
2023-01-17T17:57:25.242Z,99156.63
2023-01-17T17:59:51.688Z,99161.00
2023-01-17T18:02:18.164Z,99158.41
2023-01-17T18:04:44.938Z,99163.41
2023-01-17T18:07:11.376Z,99166.81
2023-01-17T18:09:39.174Z,99165.22
2023-01-17T18:12:05.681Z,99172.09
2023-01-17T18:14:32.263Z,99167.91
2023-01-17T18:16:58.591Z,99172.19
2023-01-17T18:19:26.125Z,99185.06
2023-01-17T18:21:53.261Z,99180.78
2023-01-17T18:24:22.588Z,99177.28
2023-01-17T18:26:51.543Z,99194.59
2023-01-17T18:29:19.515Z,99193.00
2023-01-17T18:31:46.919Z,99202.44
2023-01-17T18:34:15.851Z,99205.88
2023-01-17T18:36:43.072Z,99208.53
2023-01-17T18:39:15.411Z,99221.50
2023-01-17T18:41:42.402Z,99212.13
2023-01-17T18:44:09.459Z,99221.59
2023-01-17T18:46:36.811Z,99218.22
2023-01-17T18:49:04.395Z,99219.97
2023-01-17T18:51:33.345Z,99223.47
2023-01-17T18:54:02.815Z,99229.56
2023-01-17T18:56:31.167Z,99223.69
2023-01-17T18:58:57.894Z,99230.03
2023-01-17T19:01:27.481Z,99229.19
2023-01-17T19:03:57.808Z,99230.03
2023-01-17T19:06:30.416Z,99230.19
2023-01-17T19:08:58.417Z,99231.34
2023-01-17T19:11:25.212Z,99235.97
2023-01-17T19:13:52.514Z,99246.47
2023-01-17T19:16:25.399Z,99238.63
2023-01-17T19:18:52.808Z,99244.66
2023-01-17T19:21:22.515Z,99239.22
2023-01-17T19:23:48.922Z,99245.56
2023-01-17T19:26:17.165Z,99245.41
2023-01-17T19:28:45.622Z,99242.81
2023-01-17T19:31:14.818Z,99242.19
2023-01-17T19:33:43.891Z,99249.31
2023-01-17T19:36:13.513Z,99251.91
2023-01-17T19:38:40.299Z,99257.59
2023-01-17T19:41:14.012Z,99254.03
2023-01-17T19:43:41.663Z,99251.53
2023-01-17T19:46:09.028Z,99249.75
2023-01-17T19:48:37.213Z,99257.44
2023-01-17T19:51:09.303Z,99255.63
2023-01-17T19:53:37.133Z,99255.56
2023-01-17T19:56:08.320Z,99255.84
2023-01-17T19:58:35.325Z,99260.31
2023-01-17T20:01:28.254Z,99262.00
2023-01-17T20:03:57.483Z,99264.69
2023-01-17T20:06:26.994Z,99263.91
2023-01-17T20:08:53.369Z,99267.66
2023-01-17T20:11:21.984Z,99267.94
2023-01-17T20:13:53.319Z,99270.44
2023-01-17T20:16:20.729Z,99270.41
2023-01-17T20:18:47.227Z,99267.66
2023-01-17T20:21:17.272Z,99264.00
2023-01-17T20:23:46.781Z,99264.59
2023-01-17T20:26:15.364Z,99265.66
2023-01-17T20:28:43.820Z,99265.88
2023-01-17T20:31:13.596Z,99267.56
2023-01-17T20:33:41.390Z,99265.97
2023-01-17T20:36:11.453Z,99262.47
2023-01-17T20:38:44.767Z,99263.28
2023-01-17T20:41:14.329Z,99266.81
2023-01-17T20:43:42.206Z,99265.84
2023-01-17T20:46:09.687Z,99263.38
2023-01-17T20:48:36.533Z,99271.44
2023-01-17T20:51:10.510Z,99274.34
2023-01-17T20:53:41.663Z,99273.41
2023-01-17T20:56:08.949Z,99281.94
2023-01-17T20:58:35.567Z,99277.91
2023-01-17T21:01:02.309Z,99281.47
2023-01-17T21:03:29.190Z,99279.88
2023-01-17T21:06:04.394Z,99270.34
2023-01-17T21:08:32.204Z,99271.88
2023-01-17T21:10:58.779Z,99275.38
2023-01-17T21:13:25.376Z,99280.63
2023-01-17T21:15:52.482Z,99282.50
2023-01-17T21:18:21.515Z,99286.78
2023-01-17T21:20:48.247Z,99289.66
2023-01-17T21:23:18.102Z,99288.75
2023-01-17T21:25:55.779Z,99291.34
2023-01-17T21:28:23.658Z,99293.03
2023-01-17T21:30:50.263Z,99287.75
2023-01-17T21:33:18.233Z,99284.97
2023-01-17T21:35:44.674Z,99295.53
2023-01-17T21:38:11.586Z,99290.56
2023-01-17T21:40:38.019Z,99295.00
2023-01-17T21:43:04.433Z,99289.53
2023-01-17T21:45:32.106Z,99286.78
2023-01-17T21:47:59.074Z,99291.75
2023-01-17T21:50:33.383Z,99298.63
2023-01-17T21:53:00.231Z,99290.78
2023-01-17T21:55:44.945Z,99284.75
2023-01-17T21:58:34.341Z,99287.28
2023-01-17T22:01:21.752Z,99290.84
2023-01-17T22:04:00.227Z,99289.38
2023-01-17T22:06:29.811Z,99291.50
2023-01-17T22:08:56.465Z,99300.88
2023-01-17T22:11:25.304Z,99293.78
2023-01-17T22:13:52.673Z,99296.31
2023-01-17T22:16:21.727Z,99295.41
2023-01-17T22:18:48.093Z,99305.75
2023-01-17T22:21:17.289Z,99302.41
2023-01-17T22:23:49.500Z,99304.97
2023-01-17T22:26:16.504Z,99310.09
2023-01-17T22:28:43.486Z,99314.44
2023-01-17T22:31:12.834Z,99310.97
2023-01-17T22:33:41.260Z,99314.34
2023-01-17T22:36:09.488Z,99316.94
2023-01-17T22:38:36.284Z,99317.13
2023-01-17T22:41:08.955Z,99319.81
2023-01-17T22:43:57.005Z,99320.72
2023-01-17T22:46:27.465Z,99324.16
2023-01-17T22:48:55.556Z,99325.81
2023-01-17T22:51:24.322Z,99324.19
2023-01-17T22:53:53.435Z,99322.56
2023-01-17T22:56:26.388Z,99320.72
2023-01-17T22:58:53.309Z,99325.88
2023-01-17T23:01:24.918Z,99324.19
2023-01-17T23:03:53.980Z,99317.38
2023-01-17T23:06:27.148Z,99326.03
2023-01-17T23:08:57.825Z,99314.00
2023-01-17T23:11:40.645Z,99321.00
2023-01-17T23:14:19.166Z,99316.78
2023-01-17T23:17:12.527Z,99322.13
2023-01-17T23:19:43.935Z,99326.66
2023-01-17T23:22:16.570Z,99327.22
2023-01-17T23:24:45.656Z,99329.13
2023-01-17T23:27:40.968Z,99318.81
2023-01-17T23:30:15.934Z,99324.97
2023-01-17T23:32:51.791Z,99314.13
2023-01-17T23:35:20.144Z,99324.59
2023-01-17T23:38:05.092Z,99319.31
2023-01-17T23:40:32.721Z,99329.44
2023-01-17T23:43:17.853Z,99319.31
2023-01-17T23:45:44.450Z,99324.59
2023-01-17T23:48:11.052Z,99327.97
2023-01-17T23:50:42.717Z,99329.66
2023-01-17T23:53:11.909Z,99331.47
2023-01-17T23:55:40.297Z,99332.44
2023-01-17T23:58:08.673Z,99334.31
